createdAt,value
2022-08-19T00:05:35.331Z,7.3
2022-08-19T00:11:27.847Z,7
2022-08-19T00:17:11.762Z,7.1
2022-08-19T00:22:55.441Z,7.8
2022-08-19T00:28:38.883Z,6.9
2022-08-19T00:34:22.514Z,7.4
2022-08-19T00:40:07.254Z,7.2
2022-08-19T00:45:51.536Z,6.9
2022-08-19T00:51:35.001Z,7.5
2022-08-19T00:57:20.744Z,7
2022-08-19T01:03:04.164Z,7.6
2022-08-19T01:08:51.034Z,6.8
2022-08-19T01:14:34.457Z,7.8
2022-08-19T01:20:22.091Z,7.2
2022-08-19T01:26:09.113Z,7.9
2022-08-19T01:31:52.299Z,7.6
2022-08-19T01:37:41.779Z,8.7
2022-08-19T01:43:25.018Z,8
2022-08-19T01:49:09.195Z,7
2022-08-19T01:54:52.554Z,7.1
2022-08-19T02:00:36.212Z,7.8
2022-08-19T02:06:19.518Z,7.4
2022-08-19T02:12:08.111Z,8.3
2022-08-19T02:17:52.593Z,7.9
2022-08-19T02:23:35.833Z,7.7
2022-08-19T02:29:19.640Z,7.8
2022-08-19T02:35:12.055Z,9.3
2022-08-19T02:40:58.148Z,8.2
2022-08-19T02:46:41.540Z,8.4
2022-08-19T02:52:26.078Z,9.3
2022-08-19T02:58:10.997Z,9.7
2022-08-19T03:03:54.526Z,9.1
2022-08-19T03:09:40.026Z,9.7
2022-08-19T03:15:23.365Z,11.2
2022-08-19T03:21:07.650Z,9.8
2022-08-19T03:26:56.875Z,9.9
2022-08-19T03:32:52.987Z,9.4
2022-08-19T03:38:41.471Z,10.5
2022-08-19T03:44:26.191Z,9.4
2022-08-19T03:50:10.024Z,8.7
2022-08-19T03:55:53.338Z,7.7
2022-08-19T04:01:38.567Z,7.8
2022-08-19T04:07:23.379Z,8.8
2022-08-19T04:13:06.721Z,10.4
2022-08-19T04:18:51.039Z,7.2
2022-08-19T04:24:34.739Z,10.2
2022-08-19T04:30:19.931Z,9.3
2022-08-19T04:36:03.262Z,9.1
2022-08-19T04:41:46.561Z,9.3
2022-08-19T04:47:47.297Z,11.2
2022-08-19T04:53:40.522Z,11.8
2022-08-19T04:59:24.425Z,12.1
2022-08-19T05:05:09.516Z,10.4
2022-08-19T05:10:54.101Z,10.6
2022-08-19T05:16:37.658Z,15
2022-08-19T05:22:21.098Z,15
2022-08-19T05:28:04.386Z,14.6
2022-08-19T05:33:47.873Z,15.1
2022-08-19T05:39:33.659Z,15.8
2022-08-19T05:45:17.366Z,13.6
2022-08-19T05:51:00.568Z,14.1
2022-08-19T05:56:45.965Z,13.1
2022-08-19T06:02:29.895Z,10.9
2022-08-19T06:08:14.670Z,13.5
2022-08-19T06:14:02.831Z,12.2
2022-08-19T06:19:46.303Z,13
2022-08-19T06:25:33.253Z,8.8
2022-08-19T06:31:18.144Z,8.6
2022-08-19T06:37:03.443Z,8.7
2022-08-19T06:42:57.970Z,10.5
2022-08-19T06:48:48.583Z,8.4
2022-08-19T06:54:50.054Z,6.7
2022-08-19T07:00:33.240Z,7.6
2022-08-19T07:06:43.815Z,6.5
2022-08-19T07:12:27.451Z,6.7
2022-08-19T07:18:14.553Z,8.3
2022-08-19T07:23:58.212Z,7.7
2022-08-19T07:29:41.542Z,8
2022-08-19T07:35:24.934Z,8.6
2022-08-19T07:41:08.615Z,7.4
2022-08-19T07:46:56.114Z,8.7
2022-08-19T07:52:39.607Z,8.3
2022-08-19T07:58:24.223Z,8.8
2022-08-19T08:04:10.034Z,7.9
2022-08-19T08:09:57.136Z,8
2022-08-19T08:15:45.668Z,10.6
2022-08-19T08:21:31.143Z,6.5
2022-08-19T08:27:19.693Z,6.8
2022-08-19T08:33:06.356Z,5.4
2022-08-19T08:38:50.118Z,4.7
2022-08-19T08:44:38.870Z,6
2022-08-19T08:50:31.086Z,6.3
2022-08-19T08:56:18.405Z,6.7
2022-08-19T09:02:02.455Z,4.3
2022-08-19T09:07:53.663Z,3.6
2022-08-19T09:13:42.430Z,4.3
2022-08-19T09:19:26.398Z,6
2022-08-19T09:25:14.047Z,6
2022-08-19T09:30:58.470Z,14.8
2022-08-19T09:36:43.199Z,10.6
2022-08-19T09:42:36.602Z,10.2
2022-08-19T09:48:26.709Z,7.9
2022-08-19T09:54:14.123Z,7.2
2022-08-19T10:00:03.743Z,7
2022-08-19T10:05:50.352Z,7.5
2022-08-19T10:11:54.767Z,8
2022-08-19T10:17:39.481Z,5.9
2022-08-19T10:23:36.478Z,7.7
2022-08-19T10:29:34.214Z,5.5
2022-08-19T10:35:24.207Z,4.9
2022-08-19T10:41:17.491Z,4.7
2022-08-19T10:47:02.561Z,4.9
2022-08-19T10:52:56.405Z,3.9
2022-08-19T10:58:40.161Z,4.6
2022-08-19T11:04:31.555Z,3.8
2022-08-19T11:10:23.073Z,2.9
2022-08-19T11:16:10.639Z,2.6
2022-08-19T11:22:02.026Z,2.8
2022-08-19T11:27:47.509Z,2.7
2022-08-19T11:33:32.134Z,2.7
2022-08-19T11:39:17.646Z,3
2022-08-19T11:45:00.814Z,2.9
2022-08-19T11:50:44.308Z,1.8
2022-08-19T11:56:28.145Z,2.3
2022-08-19T12:02:11.534Z,2.8
2022-08-19T12:07:57.132Z,2.3
2022-08-19T12:13:40.769Z,1.8
2022-08-19T12:19:25.326Z,2.4
2022-08-19T12:25:09.615Z,2.4
2022-08-19T12:30:56.861Z,2.3
2022-08-19T12:36:41.595Z,1.7
2022-08-19T12:42:24.988Z,2.2
2022-08-19T12:48:33.144Z,3
2022-08-19T12:54:11.952Z,2.6
2022-08-19T12:59:59.162Z,1.7
2022-08-19T13:05:43.778Z,1.9
2022-08-19T13:11:27.683Z,1.2
2022-08-19T13:17:12.818Z,1.5
2022-08-19T13:22:57.031Z,2.2
2022-08-19T13:28:40.959Z,1.8
2022-08-19T13:34:34.300Z,1.7
2022-08-19T13:40:19.647Z,1.6
2022-08-19T13:46:10.058Z,1.3
2022-08-19T13:51:53.417Z,1.4
2022-08-19T13:57:36.731Z,1.9
2022-08-19T14:03:20.098Z,1.8
2022-08-19T14:09:04.882Z,1.5
2022-08-19T14:14:48.083Z,1.3
2022-08-19T14:20:33.526Z,2.3
2022-08-19T14:26:18.918Z,0.7
2022-08-19T14:32:02.159Z,1
2022-08-19T14:37:52.918Z,0.9
2022-08-19T14:43:36.138Z,0.9
2022-08-19T14:49:34.800Z,0.9
2022-08-19T14:55:17.113Z,2.3
2022-08-19T15:01:01.771Z,0.8
2022-08-19T15:06:45.594Z,1.3
2022-08-19T15:12:29.487Z,4.1
2022-08-19T15:18:13.669Z,2.8
2022-08-19T15:23:57.213Z,3.3
2022-08-19T15:29:40.523Z,1.3
2022-08-19T15:35:25.638Z,1.9
2022-08-19T15:41:09.126Z,2.1
2022-08-19T15:46:53.002Z,3.5
2022-08-19T15:52:50.272Z,2.9
2022-08-19T15:58:33.559Z,1.7
2022-08-19T16:04:20.599Z,1
2022-08-19T16:10:26.747Z,3.4
2022-08-19T16:16:07.718Z,0.9
2022-08-19T16:21:52.183Z,1.5
2022-08-19T16:27:35.445Z,1.1
2022-08-19T16:33:25.120Z,2.4
2022-08-19T16:39:08.198Z,1.8
2022-08-19T16:44:51.436Z,1.6
2022-08-19T16:50:49.907Z,1.6
2022-08-19T16:56:33.694Z,2.5
2022-08-19T17:02:17.023Z,2.6
2022-08-19T17:08:00.243Z,2.1
2022-08-19T17:13:48.774Z,0.8
2022-08-19T17:19:31.993Z,0.8
2022-08-19T17:25:15.666Z,0.8
2022-08-19T17:30:59.398Z,1.5
2022-08-19T17:36:44.034Z,1.8
2022-08-19T17:42:27.450Z,0.8
2022-08-19T17:48:11.477Z,1.2
2022-08-19T17:53:55.498Z,2.1
2022-08-19T17:59:40.241Z,2.2
2022-08-19T18:05:24.279Z,1.5
2022-08-19T18:11:07.745Z,2.8
2022-08-19T18:16:52.107Z,2.1
2022-08-19T18:22:39.040Z,1.3
2022-08-19T18:28:23.438Z,3.9
2022-08-19T18:34:06.911Z,3.1
2022-08-19T18:39:51.774Z,3
2022-08-19T18:45:35.363Z,3
2022-08-19T18:51:20.471Z,2.3
2022-08-19T18:57:07.445Z,3
2022-08-19T19:02:50.592Z,3.7
2022-08-19T19:08:33.906Z,4.5
2022-08-19T19:14:50.428Z,3.9
2022-08-19T19:20:24.630Z,3
2022-08-19T19:26:15.001Z,2.5
2022-08-19T19:31:58.243Z,3.8
2022-08-19T19:37:41.687Z,2.5
2022-08-19T19:43:24.908Z,4
2022-08-19T19:49:09.471Z,2.9
2022-08-19T19:54:52.846Z,2.2
2022-08-19T20:00:37.579Z,3.2
2022-08-19T20:06:21.350Z,1.7
2022-08-19T20:12:04.614Z,2.4
2022-08-19T20:17:47.956Z,1.2
2022-08-19T20:23:31.327Z,1.2
2022-08-19T20:29:37.924Z,2.3
2022-08-19T20:35:18.454Z,2.2
2022-08-19T20:41:03.113Z,1.2
2022-08-19T20:47:03.480Z,1.6
2022-08-19T20:52:55.442Z,1.4
2022-08-19T20:58:38.762Z,2.6
2022-08-19T21:04:22.922Z,1.7
2022-08-19T21:10:07.962Z,2.2
2022-08-19T21:15:51.303Z,1.9
2022-08-19T21:21:34.642Z,2.2
2022-08-19T21:27:19.111Z,1.9
2022-08-19T21:33:02.990Z,1.3
2022-08-19T21:38:46.481Z,1.2
2022-08-19T21:44:29.946Z,1
2022-08-19T21:50:13.914Z,1.3
2022-08-19T21:55:57.245Z,1.3
2022-08-19T22:01:48.818Z,1.7
2022-08-19T22:07:34.442Z,2.7
2022-08-19T22:13:18.947Z,1.6
2022-08-19T22:19:02.770Z,2.3
2022-08-19T22:24:45.966Z,1.6
2022-08-19T22:30:35.721Z,2.7
2022-08-19T22:36:19.280Z,2
2022-08-19T22:42:04.090Z,2.2
2022-08-19T22:47:47.341Z,1.5
2022-08-19T22:53:30.659Z,2.1
2022-08-19T22:59:13.998Z,2.6
2022-08-19T23:04:57.247Z,2.5
2022-08-19T23:10:40.563Z,2.1
2022-08-19T23:16:25.180Z,2.8
2022-08-19T23:22:11.408Z,2.8
2022-08-19T23:27:59.858Z,3
2022-08-19T23:33:53.874Z,3.7
2022-08-19T23:39:37.640Z,2.4
2022-08-19T23:45:27.563Z,2
2022-08-19T23:51:13.319Z,1.6
2022-08-19T23:56:56.803Z,2.9
